METAR Data
IDs: Format: Raw Decoded Include TAF

Data at: 1814 UTC 16 Oct 2021

KPEZ 161755Z AUTO 04010G16KT 10SM CLR 23/06 A3036 RMK AO2 T02270064 10230 20162
KPEZ 161730Z AUTO 05010KT 10SM CLR 23/07 A3037 RMK AO2 T02280069
KPEZ 161715Z AUTO 04009G14KT 10SM CLR 22/06 A3037 RMK AO2 T02180061
KPEZ 161655Z AUTO 01010G18KT 350V050 10SM CLR 22/06 A3038 RMK AO2 T02190060
KPEZ 161635Z AUTO 05009G14KT 10SM CLR 22/07 A3038 RMK AO2 T02200067
KPEZ 161615Z AUTO 04010G19KT 10SM CLR 22/07 A3039 RMK AO2 T02150065
KPEZ 161555Z AUTO 04014G19KT 10SM CLR 20/06 A3038 RMK AO2 T02010063
KPEZ 161535Z AUTO 04006KT 10SM CLR 20/08 A3038 RMK AO2 T01960078
KPEZ 161515Z AUTO 05007KT 10SM CLR 19/08 A3038 RMK AO2 T01900080
KPEZ 161455Z AUTO 04009KT 10SM CLR 18/08 A3037 RMK AO2 T01810077
KPEZ 161435Z AUTO 04007KT 10SM CLR 17/08 A3036 RMK AO2 T01710076
KPEZ 161415Z AUTO 04010G14KT 10SM CLR 17/08 A3036 RMK AO2 T01740076
KPEZ 161355Z AUTO 04008G14KT 10SM CLR 18/08 A3035 RMK AO2 T01750077
KPEZ 161335Z AUTO 03009KT 10SM CLR 17/08 A3033 RMK AO2 T01700078
KPEZ 161315Z AUTO 03007KT 10SM CLR 17/08 A3032 RMK AO2 T01650076
KPEZ 161255Z AUTO 03006KT 10SM CLR 16/08 A3032 RMK AO2 T01640076
KPEZ 161235Z AUTO 03006KT 10SM CLR 17/08 A3031 RMK AO2 T01670075
KPEZ 161215Z AUTO 03007KT 10SM CLR 17/08 A3031 RMK AO2 T01700075
KPEZ 161155Z AUTO 02007KT 10SM CLR 17/07 A3030 RMK AO2 T01740072 10217 20172
KPEZ 161135Z AUTO 03007G15KT 10SM CLR 18/07 A3030 RMK AO2 T01760071
KPEZ 161115Z AUTO 03010KT 10SM CLR 18/07 A3029 RMK AO2 T01770071
KPEZ 161055Z AUTO 04008G14KT 10SM SCT070 SCT085 18/07 A3028 RMK AO2 T01810070
KPEZ 161035Z AUTO 04006KT 10SM CLR 18/07 A3027 RMK AO2 T01820072
KPEZ 161015Z AUTO 03009G14KT 10SM SCT075 SCT085 19/07 A3026 RMK AO2 T01880071
KPEZ 160955Z AUTO 03008G14KT 10SM SCT075 19/08 A3025 RMK AO2 T01880075
KPEZ 160935Z AUTO 03009KT 10SM CLR 19/08 A3025 RMK AO2 T01900075
KPEZ 160915Z AUTO 03009G14KT 10SM SCT070 19/08 A3024 RMK AO2 T01930078
KPEZ 160855Z AUTO 03009G14KT 10SM SCT070 20/08 A3024 RMK AO2 T01960080
KPEZ 160835Z AUTO 03008G16KT 10SM SCT075 20/08 A3023 RMK AO2 T01970081
KPEZ 160815Z AUTO 02008G15KT 10SM SCT085 20/08 A3023 RMK AO2 T02000084
KPEZ 160755Z AUTO 03010G16KT 10SM SCT065 BKN080 20/09 A3023 RMK AO2 T02030085
KPEZ 160735Z AUTO 03013G19KT 10SM OVC065 21/09 A3022 RMK AO2 T02060088
KPEZ 160715Z AUTO 02011G18KT 10SM BKN065 21/09 A3022 RMK AO2 T02080091
KPEZ 160655Z AUTO 02012G18KT 360V060 10SM OVC065 21/10 A3021 RMK AO2 T02120097
KPEZ 160635Z AUTO 02008G16KT 10SM OVC065 21/10 A3021 RMK AO2 T02140103
KPEZ 160615Z AUTO 03011G18KT 10SM BKN065 22/11 A3020 RMK AO2 T02150107
KPEZ 160555Z AUTO 02011G17KT 10SM BKN065 22/11 A3020 RMK AO2 T02160114 10265 20216 403440216
KPEZ 160535Z AUTO 02006G17KT 10SM CLR 22/12 A3018 RMK AO2 T02200118
KPEZ 160515Z AUTO 02009G20KT 10SM CLR 22/12 A3018 RMK AO2 T02240120
KPEZ 160455Z AUTO 03011G16KT 10SM CLR 23/12 A3018 RMK AO2 T02260120
KPEZ 160435Z AUTO 03009G17KT 10SM CLR 23/12 A3018 RMK AO2 T02300123
KPEZ 160415Z AUTO 03012G18KT 10SM CLR 23/13 A3017 RMK AO2 T02320125
KPEZ 160355Z AUTO 04011G15KT 10SM CLR 23/13 A3016 RMK AO2 T02340133
KPEZ 160335Z AUTO 03009G16KT 10SM CLR 24/14 A3014 RMK AO2 T02370137
KPEZ 160315Z AUTO 03010KT 10SM CLR 24/14 A3013 RMK AO2 T02400141
KPEZ 160255Z AUTO 02007KT 10SM CLR 24/15 A3011 RMK AO2 T02400148
KPEZ 160235Z AUTO 05008KT 10SM CLR 24/15 A3011 RMK AO2 T02410150
KPEZ 160215Z AUTO 02008G16KT 10SM CLR 25/15 A3008 RMK AO2 T02450150
KPEZ 160155Z AUTO 02009G16KT 10SM CLR 25/15 A3006 RMK AO2 T02500147
KPEZ 160135Z AUTO 02014G20KT 10SM CLR 25/15 A3004 RMK AO2 T02520149
KPEZ 160115Z AUTO 02013G22KT 10SM CLR 26/15 A3003 RMK AO2 T02560152
KPEZ 160055Z AUTO 01010G18KT 10SM SCT080 26/16 A3003 RMK AO2 T02560163
KPEZ 160035Z AUTO 01007KT 10SM CLR 26/17 A3002 RMK AO2 T02560170
KPEZ 160015Z AUTO 01005KT 10SM CLR 26/17 A3002 RMK AO2 T02610169
KPEZ 152355Z AUTO 36009KT 10SM SCT065 SCT075 SCT090 27/17 A3000 RMK AO2 T02650169 10344 20256
KPEZ 152335Z AUTO 36005KT 10SM SCT065 BKN090 27/17 A3000 RMK AO2 T02650173
KPEZ 152315Z AUTO 01006G14KT 10SM SCT090 27/19 A2999 RMK AO2 T02650187
KPEZ 152255Z AUTO 36009KT 10SM -DZ SCT048 SCT065 SCT095 26/21 A2998 RMK AO2 LTG DSNT SW AND NW T02570212
KPEZ 152235Z AUTO 35009G15KT 10SM -RA SCT050 SCT065 BKN075 26/21 A2999 RMK AO2 LTG DSNT W T02560209
KPEZ 152215Z AUTO 36008KT 10SM SCT047 SCT060 SCT090 28/19 A2996 RMK AO2 LTG DSNT W T02810188
KPEZ 152155Z AUTO 36012G17KT 10SM SCT047 BKN050 29/20 A2996 RMK AO2 T02910197
KPEZ 152135Z AUTO 00000KT 10SM CLR 33/23 A2993 RMK AO2 LTG DSNT N AND W T03320231
KPEZ 152115Z AUTO 02004KT 10SM SCT047 32/22 A2992 RMK AO2 T03230221
KPEZ 152055Z AUTO 04003KT 10SM CLR 34/22 A2992 RMK AO2 LTG DSNT N T03380221
KPEZ 152035Z AUTO 04003KT 10SM SCT037 34/22 A2992 RMK AO2 T03400220
KPEZ 152015Z AUTO 06005KT 10SM SCT037 34/23 A2992 RMK AO2 T03360233
KPEZ 151955Z AUTO 00000KT 10SM SCT037 34/23 A2993 RMK AO2 T03360226
KPEZ 151935Z AUTO 00000KT 10SM CLR 32/24 A2994 RMK AO2 T03210237
KPEZ 151915Z AUTO 00000KT 10SM CLR 32/24 A2995 RMK AO2 T03210235
KPEZ 151855Z AUTO 03003KT 10SM SCT041 SCT049 SCT070 32/24 A2996 RMK AO2 T03180240
KPEZ 151835Z AUTO 03003KT 10SM SCT042 SCT050 BKN075 32/24 A2997 RMK AO2 T03190244
KPEZ 151815Z AUTO 00000KT 10SM SCT023 SCT047 SCT070 32/24 A2998 RMK AO2 T03150241
KPEZ 151755Z AUTO 36003KT 10SM OVC045 30/24 A2998 RMK AO2 T03020243 10306 20245
KPEZ 151735Z AUTO 00000KT 10SM SCT023 BKN032 OVC040 30/24 A2999 RMK AO2 T02950243
KPEZ 151710Z AUTO 00000KT 10SM SCT021 OVC032 30/25 A2999 RMK AO2 T02980245
KPEZ 151655Z AUTO 15003KT 10SM BKN019 OVC030 29/25 A2999 RMK AO2 T02920245
KPEZ 151635Z AUTO 00000KT 10SM BKN019 OVC028 29/24 A2999 RMK AO2 T02910244
KPEZ 151615Z AUTO 22003KT 10SM BKN021 OVC028 29/24 A2998 RMK AO2 T02890241
KPEZ 151555Z AUTO 16004KT 10SM SCT015 OVC021 29/24 A2998 RMK AO2 T02850242
KPEZ 151535Z AUTO 16004KT 10SM BKN014 BKN024 28/25 A2998 RMK AO2 T02830250
KPEZ 151515Z AUTO 20003KT 10SM SCT010 BKN024 28/25 A2998 RMK AO2 T02840251
KPEZ 151455Z AUTO 00000KT 7SM OVC024 27/25 A2997 RMK AO2 T02710251
KPEZ 151435Z AUTO 00000KT 7SM SCT004 OVC022 27/25 A2996 RMK AO2 T02650251
KPEZ 151415Z AUTO 00000KT 5SM BR BKN004 BKN009 BKN020 26/25 A2995 RMK AO2 T02610250
KPEZ 151355Z AUTO 00000KT 4SM BR BKN004 OVC009 26/25 A2994 RMK AO2 T02550251
KPEZ 151335Z AUTO 00000KT 1/2SM FG OVC002 25/25 A2993 RMK AO2 T02520250
KPEZ 151315Z AUTO 00000KT M1/4SM FG OVC002 25/25 A2992 RMK AO2 T02500247
KPEZ 151255Z AUTO 00000KT M1/4SM FG OVC002 25/25 A2991 RMK AO2 T02500247
KPEZ 151235Z AUTO 14003KT 1 1/2SM BR OVC002 25/25 A2991 RMK AO2 T02500245
KPEZ 151215Z AUTO 00000KT 5SM BR OVC002 25/24 A2990 RMK AO2 T02460242
KPEZ 151155Z AUTO 00000KT 4SM BR BKN002 BKN006 BKN023 25/24 A2990 RMK AO2 70001 T02450241 10252 20240
KPEZ 151135Z AUTO 00000KT 4SM BR BKN004 25/24 A2989 RMK AO2 T02480243
KPEZ 151115Z AUTO 12003KT 5SM BR OVC006 25/25 A2989 RMK AO2 T02500245
KPEZ 151055Z AUTO 00000KT 5SM BR OVC006 25/25 A2989 RMK AO2 T02510246
KPEZ 151035Z AUTO 00000KT 4SM BR SCT001 OVC006 25/25 A2988 RMK AO2 T02510246
KPEZ 151015Z AUTO 00000KT 4SM BR OVC006 25/25 A2988 RMK AO2 T02520247
KPEZ 150955Z AUTO 00000KT 3SM BR OVC004 25/25 A2988 RMK AO2 T02510247
KPEZ 150935Z AUTO 00000KT 2SM BR OVC002 25/25 A2988 RMK AO2 T02500246
KPEZ 150915Z AUTO 00000KT 1 3/4SM BR OVC004 25/25 A2988 RMK AO2 T02490245
KPEZ 150855Z AUTO 00000KT 2SM BR OVC004 25/25 A2988 RMK AO2 T02500245
KPEZ 150835Z AUTO 00000KT 2 1/2SM BR OVC004 25/24 A2988 RMK AO2 T02500244
KPEZ 150815Z AUTO 00000KT 3SM BR OVC004 25/24 A2988 RMK AO2 T02500242
KPEZ 150755Z AUTO 00000KT 5SM BR OVC006 25/24 A2988 RMK AO2 T02470240
KPEZ 150735Z AUTO 00000KT 10SM BKN009 OVC013 25/24 A2988 RMK AO2 T02470237
KPEZ 150715Z AUTO 00000KT 10SM SCT007 OVC013 25/24 A2988 RMK AO2 T02450235
KPEZ 150655Z AUTO 00000KT 10SM OVC007 25/24 A2987 RMK AO2 T02450235
KPEZ 150635Z AUTO 00000KT 10SM OVC007 25/24 A2987 RMK AO2 T02450235
KPEZ 150615Z AUTO 00000KT 10SM OVC009 24/24 A2987 RMK AO2 T02430235